Terminal Aerodrome Forecast
Issued by NWS

Home | Current Version | Previous Version | Text Only | Print | Product List | Glossary On
Versions: 1 2 3 4 5 6 7 8 9 10 11 12 13 14
936
FTUS45 KABQ 191123
TAFROW
TAF
KROW 191123Z 1912/2012 VRB05KT P6SM BKN130
     FM191600 22010KT P6SM BKN150
     FM192000 23013G23KT P6SM BKN200
     FM200100 26010KT P6SM SCT200
     FM200600 30008KT P6SM SKC=

USA.gov is the U.S. government's official web portal to all federal, state and local government web resources and services.